sensor_id;sensor_type;location;lat;lon;timestamp;pressure;altitude;pressure_sealevel;temperature
33267;BMP180;19638;49.080;11.896;2023-07-02T00:03:54;95685.00;;;18.30
33267;BMP180;19638;49.080;11.896;2023-07-02T00:08:03;95680.00;;;18.30
33267;BMP180;19638;49.080;11.896;2023-07-02T00:12:09;95676.00;;;18.40
33267;BMP180;19638;49.080;11.896;2023-07-02T00:16:14;95674.00;;;18.40
33267;BMP180;19638;49.080;11.896;2023-07-02T00:20:19;95673.00;;;18.40
33267;BMP180;19638;49.080;11.896;2023-07-02T00:24:22;95674.00;;;18.40
33267;BMP180;19638;49.080;11.896;2023-07-02T00:28:25;95669.00;;;18.50
33267;BMP180;19638;49.080;11.896;2023-07-02T00:32:33;95668.00;;;18.40
33267;BMP180;19638;49.080;11.896;2023-07-02T00:36:36;95672.00;;;18.40
33267;BMP180;19638;49.080;11.896;2023-07-02T00:40:43;95677.00;;;18.40
33267;BMP180;19638;49.080;11.896;2023-07-02T00:44:46;95683.00;;;18.40
33267;BMP180;19638;49.080;11.896;2023-07-02T00:48:52;95675.00;;;18.40
33267;BMP180;19638;49.080;11.896;2023-07-02T00:52:56;95684.00;;;18.40
33267;BMP180;19638;49.080;11.896;2023-07-02T00:57:02;95684.00;;;18.40
33267;BMP180;19638;49.080;11.896;2023-07-02T01:01:07;95679.00;;;18.40
33267;BMP180;19638;49.080;11.896;2023-07-02T01:05:17;95673.00;;;18.40
33267;BMP180;19638;49.080;11.896;2023-07-02T01:09:25;95673.00;;;18.30
33267;BMP180;19638;49.080;11.896;2023-07-02T01:13:29;95673.00;;;18.20
33267;BMP180;19638;49.080;11.896;2023-07-02T01:17:34;95681.00;;;18.10
33267;BMP180;19638;49.080;11.896;2023-07-02T01:21:45;95673.00;;;17.90
33267;BMP180;19638;49.080;11.896;2023-07-02T01:25:51;95669.00;;;17.80
33267;BMP180;19638;49.080;11.896;2023-07-02T01:29:56;95685.00;;;17.70
33267;BMP180;19638;49.080;11.896;2023-07-02T01:34:00;95692.00;;;17.60
33267;BMP180;19638;49.080;11.896;2023-07-02T01:38:06;95697.00;;;17.60
33267;BMP180;19638;49.080;11.896;2023-07-02T01:42:12;95691.00;;;17.70
33267;BMP180;19638;49.080;11.896;2023-07-02T01:46:19;95696.00;;;17.70
33267;BMP180;19638;49.080;11.896;2023-07-02T01:50:26;95697.00;;;17.70
33267;BMP180;19638;49.080;11.896;2023-07-02T01:54:33;95695.00;;;17.70
33267;BMP180;19638;49.080;11.896;2023-07-02T01:58:36;95695.00;;;17.70
33267;BMP180;19638;49.080;11.896;2023-07-02T02:02:39;95700.00;;;17.80
33267;BMP180;19638;49.080;11.896;2023-07-02T02:06:43;95706.00;;;17.80
33267;BMP180;19638;49.080;11.896;2023-07-02T02:10:49;95710.00;;;17.90
33267;BMP180;19638;49.080;11.896;2023-07-02T02:14:54;95697.00;;;17.90
33267;BMP180;19638;49.080;11.896;2023-07-02T02:18:57;95694.00;;;17.90
33267;BMP180;19638;49.080;11.896;2023-07-02T02:23:00;95701.00;;;18.00
33267;BMP180;19638;49.080;11.896;2023-07-02T02:27:05;95693.00;;;18.00
33267;BMP180;19638;49.080;11.896;2023-07-02T02:31:11;95702.00;;;18.00
33267;BMP180;19638;49.080;11.896;2023-07-02T02:35:17;95695.00;;;18.10
33267;BMP180;19638;49.080;11.896;2023-07-02T02:39:24;95693.00;;;18.20
33267;BMP180;19638;49.080;11.896;2023-07-02T02:43:34;95692.00;;;18.30
33267;BMP180;19638;49.080;11.896;2023-07-02T02:47:39;95700.00;;;18.40
33267;BMP180;19638;49.080;11.896;2023-07-02T02:51:44;95696.00;;;18.40
33267;BMP180;19638;49.080;11.896;2023-07-02T02:55:47;95700.00;;;18.40
33267;BMP180;19638;49.080;11.896;2023-07-02T02:59:52;95695.00;;;18.40
33267;BMP180;19638;49.080;11.896;2023-07-02T03:04:00;95693.00;;;18.40
33267;BMP180;19638;49.080;11.896;2023-07-02T03:08:05;95689.00;;;18.30
33267;BMP180;19638;49.080;11.896;2023-07-02T03:12:09;95693.00;;;18.30
33267;BMP180;19638;49.080;11.896;2023-07-02T03:16:15;95696.00;;;18.20
33267;BMP180;19638;49.080;11.896;2023-07-02T03:20:18;95706.00;;;18.10
33267;BMP180;19638;49.080;11.896;2023-07-02T03:24:24;95705.00;;;18.00
33267;BMP180;19638;49.080;11.896;2023-07-02T03:28:30;95716.00;;;17.80
33267;BMP180;19638;49.080;11.896;2023-07-02T03:32:37;95717.00;;;17.80
33267;BMP180;19638;49.080;11.896;2023-07-02T03:36:42;95715.00;;;17.70
33267;BMP180;19638;49.080;11.896;2023-07-02T03:40:47;95716.00;;;17.70
33267;BMP180;19638;49.080;11.896;2023-07-02T03:44:51;95710.00;;;17.60
33267;BMP180;19638;49.080;11.896;2023-07-02T03:48:56;95710.00;;;17.50
33267;BMP180;19638;49.080;11.896;2023-07-02T03:52:59;95728.00;;;17.50
33267;BMP180;19638;49.080;11.896;2023-07-02T03:57:03;95731.00;;;17.50
33267;BMP180;19638;49.080;11.896;2023-07-02T04:01:11;95739.00;;;17.40
33267;BMP180;19638;49.080;11.896;2023-07-02T04:05:19;95742.00;;;17.40
33267;BMP180;19638;49.080;11.896;2023-07-02T04:09:22;95750.00;;;17.60
33267;BMP180;19638;49.080;11.896;2023-07-02T04:13:26;95750.00;;;17.80
33267;BMP180;19638;49.080;11.896;2023-07-02T04:17:31;95757.00;;;18.00
33267;BMP180;19638;49.080;11.896;2023-07-02T04:21:36;95757.00;;;18.30
33267;BMP180;19638;49.080;11.896;2023-07-02T04:25:42;95772.00;;;18.50
33267;BMP180;19638;49.080;11.896;2023-07-02T04:30:06;95770.00;;;18.80
33267;BMP180;19638;49.080;11.896;2023-07-02T04:34:12;95773.00;;;19.00
33267;BMP180;19638;49.080;11.896;2023-07-02T04:38:20;95771.00;;;19.20
33267;BMP180;19638;49.080;11.896;2023-07-02T04:42:23;95772.00;;;19.50
33267;BMP180;19638;49.080;11.896;2023-07-02T04:46:31;95779.00;;;19.50
33267;BMP180;19638;49.080;11.896;2023-07-02T04:50:34;95779.00;;;19.90
33267;BMP180;19638;49.080;11.896;2023-07-02T04:54:42;95780.00;;;20.30
33267;BMP180;19638;49.080;11.896;2023-07-02T04:58:47;95783.00;;;20.30
33267;BMP180;19638;49.080;11.896;2023-07-02T05:02:50;95794.00;;;19.90
33267;BMP180;19638;49.080;11.896;2023-07-02T05:06:54;95789.00;;;19.70
33267;BMP180;19638;49.080;11.896;2023-07-02T05:10:58;95794.00;;;19.80
33267;BMP180;19638;49.080;11.896;2023-07-02T05:15:01;95805.00;;;20.00
33267;BMP180;19638;49.080;11.896;2023-07-02T05:19:08;95810.00;;;20.00
33267;BMP180;19638;49.080;11.896;2023-07-02T05:23:14;95826.00;;;20.10
33267;BMP180;19638;49.080;11.896;2023-07-02T05:27:21;95820.00;;;20.40
33267;BMP180;19638;49.080;11.896;2023-07-02T05:31:25;95819.00;;;20.70
33267;BMP180;19638;49.080;11.896;2023-07-02T05:35:28;95827.00;;;20.70
33267;BMP180;19638;49.080;11.896;2023-07-02T05:39:33;95833.00;;;20.60
33267;BMP180;19638;49.080;11.896;2023-07-02T05:43:37;95846.00;;;20.50
33267;BMP180;19638;49.080;11.896;2023-07-02T05:47:41;95828.00;;;20.40
33267;BMP180;19638;49.080;11.896;2023-07-02T05:51:44;95839.00;;;20.40
33267;BMP180;19638;49.080;11.896;2023-07-02T05:55:47;95841.00;;;20.40
33267;BMP180;19638;49.080;11.896;2023-07-02T05:59:52;95839.00;;;20.30
33267;BMP180;19638;49.080;11.896;2023-07-02T06:03:55;95852.00;;;20.30
33267;BMP180;19638;49.080;11.896;2023-07-02T06:07:58;95861.00;;;20.30
33267;BMP180;19638;49.080;11.896;2023-07-02T06:12:02;95865.00;;;20.30
33267;BMP180;19638;49.080;11.896;2023-07-02T06:16:06;95867.00;;;20.30
33267;BMP180;19638;49.080;11.896;2023-07-02T06:20:14;95875.00;;;20.10
33267;BMP180;19638;49.080;11.896;2023-07-02T06:24:18;95887.00;;;20.20
33267;BMP180;19638;49.080;11.896;2023-07-02T06:28:23;95882.00;;;20.00
33267;BMP180;19638;49.080;11.896;2023-07-02T06:32:27;95881.00;;;19.90
33267;BMP180;19638;49.080;11.896;2023-07-02T06:36:31;95893.00;;;19.90
33267;BMP180;19638;49.080;11.896;2023-07-02T06:40:35;95894.00;;;19.90
33267;BMP180;19638;49.080;11.896;2023-07-02T06:44:41;95887.00;;;19.90
33267;BMP180;19638;49.080;11.896;2023-07-02T06:48:45;95891.00;;;19.70
33267;BMP180;19638;49.080;11.896;2023-07-02T06:52:48;95896.00;;;19.70
33267;BMP180;19638;49.080;11.896;2023-07-02T06:56:51;95892.00;;;19.80
33267;BMP180;19638;49.080;11.896;2023-07-02T07:00:58;95901.00;;;19.70
33267;BMP180;19638;49.080;11.896;2023-07-02T07:05:03;95899.00;;;19.70
33267;BMP180;19638;49.080;11.896;2023-07-02T07:09:07;95889.00;;;19.80
33267;BMP180;19638;49.080;11.896;2023-07-02T07:13:11;95891.00;;;20.00
33267;BMP180;19638;49.080;11.896;2023-07-02T07:17:14;95895.00;;;20.40
33267;BMP180;19638;49.080;11.896;2023-07-02T07:21:21;95898.00;;;20.60
33267;BMP180;19638;49.080;11.896;2023-07-02T07:25:26;95886.00;;;20.90
33267;BMP180;19638;49.080;11.896;2023-07-02T07:29:33;95884.00;;;21.20
33267;BMP180;19638;49.080;11.896;2023-07-02T07:33:36;95893.00;;;21.20
33267;BMP180;19638;49.080;11.896;2023-07-02T07:37:47;95893.00;;;21.30
33267;BMP180;19638;49.080;11.896;2023-07-02T07:41:52;95890.00;;;21.30
33267;BMP180;19638;49.080;11.896;2023-07-02T07:45:59;95895.00;;;21.60
33267;BMP180;19638;49.080;11.896;2023-07-02T07:50:08;95892.00;;;21.70
33267;BMP180;19638;49.080;11.896;2023-07-02T07:54:19;95886.00;;;22.30
33267;BMP180;19638;49.080;11.896;2023-07-02T07:58:25;95890.00;;;22.50
33267;BMP180;19638;49.080;11.896;2023-07-02T08:02:30;95898.00;;;22.90
33267;BMP180;19638;49.080;11.896;2023-07-02T08:06:39;95894.00;;;23.00
33267;BMP180;19638;49.080;11.896;2023-07-02T08:10:45;95892.00;;;23.10
33267;BMP180;19638;49.080;11.896;2023-07-02T08:14:51;95898.00;;;23.10
33267;BMP180;19638;49.080;11.896;2023-07-02T08:18:57;95906.00;;;22.80
33267;BMP180;19638;49.080;11.896;2023-07-02T08:23:00;95900.00;;;22.90
33267;BMP180;19638;49.080;11.896;2023-07-02T08:27:05;95920.00;;;22.90
33267;BMP180;19638;49.080;11.896;2023-07-02T08:31:09;95903.00;;;22.80
33267;BMP180;19638;49.080;11.896;2023-07-02T08:35:12;95910.00;;;22.80
33267;BMP180;19638;49.080;11.896;2023-07-02T08:39:18;95910.00;;;23.60
33267;BMP180;19638;49.080;11.896;2023-07-02T08:43:24;95911.00;;;24.70
33267;BMP180;19638;49.080;11.896;2023-07-02T08:47:28;95894.00;;;25.30
33267;BMP180;19638;49.080;11.896;2023-07-02T08:51:35;95911.00;;;25.50
33267;BMP180;19638;49.080;11.896;2023-07-02T08:55:42;95923.00;;;25.50
33267;BMP180;19638;49.080;11.896;2023-07-02T08:59:53;95915.00;;;25.50
33267;BMP180;19638;49.080;11.896;2023-07-02T09:04:02;95918.00;;;26.10
33267;BMP180;19638;49.080;11.896;2023-07-02T09:08:05;95914.00;;;26.60
33267;BMP180;19638;49.080;11.896;2023-07-02T09:12:09;95920.00;;;26.90
33267;BMP180;19638;49.080;11.896;2023-07-02T09:16:23;95931.00;;;26.40
33267;BMP180;19638;49.080;11.896;2023-07-02T09:20:32;95925.00;;;26.90
33267;BMP180;19638;49.080;11.896;2023-07-02T09:24:39;95916.00;;;26.30
33267;BMP180;19638;49.080;11.896;2023-07-02T09:28:42;95912.00;;;26.70
33267;BMP180;19638;49.080;11.896;2023-07-02T09:32:49;95919.00;;;26.20
33267;BMP180;19638;49.080;11.896;2023-07-02T09:36:53;95916.00;;;25.30
33267;BMP180;19638;49.080;11.896;2023-07-02T09:40:59;95912.00;;;25.30
33267;BMP180;19638;49.080;11.896;2023-07-02T09:45:12;95927.00;;;26.20
33267;BMP180;19638;49.080;11.896;2023-07-02T09:49:20;95917.00;;;25.60
33267;BMP180;19638;49.080;11.896;2023-07-02T09:53:28;95921.00;;;26.20
33267;BMP180;19638;49.080;11.896;2023-07-02T09:57:32;95919.00;;;26.60
33267;BMP180;19638;49.080;11.896;2023-07-02T10:01:43;95916.00;;;26.50
33267;BMP180;19638;49.080;11.896;2023-07-02T10:06:03;95911.00;;;25.70
33267;BMP180;19638;49.080;11.896;2023-07-02T10:10:07;95901.00;;;25.30
33267;BMP180;19638;49.080;11.896;2023-07-02T10:14:12;95919.00;;;26.90
33267;BMP180;19638;49.080;11.896;2023-07-02T10:18:26;95912.00;;;28.30
33267;BMP180;19638;49.080;11.896;2023-07-02T10:22:46;95908.00;;;29.10
33267;BMP180;19638;49.080;11.896;2023-07-02T10:26:55;95912.00;;;29.60
33267;BMP180;19638;49.080;11.896;2023-07-02T10:30:58;95922.00;;;29.80
33267;BMP180;19638;49.080;11.896;2023-07-02T10:35:02;95923.00;;;30.10
33267;BMP180;19638;49.080;11.896;2023-07-02T10:39:08;95920.00;;;29.30
33267;BMP180;19638;49.080;11.896;2023-07-02T10:43:12;95934.00;;;29.20
33267;BMP180;19638;49.080;11.896;2023-07-02T10:47:21;95916.00;;;29.40
33267;BMP180;19638;49.080;11.896;2023-07-02T10:51:27;95932.00;;;28.80
33267;BMP180;19638;49.080;11.896;2023-07-02T10:55:32;95928.00;;;28.00
33267;BMP180;19638;49.080;11.896;2023-07-02T10:59:37;95947.00;;;27.60
33267;BMP180;19638;49.080;11.896;2023-07-02T11:03:40;95927.00;;;27.80
33267;BMP180;19638;49.080;11.896;2023-07-02T11:07:44;95920.00;;;28.00
33267;BMP180;19638;49.080;11.896;2023-07-02T11:12:00;95926.00;;;28.50
33267;BMP180;19638;49.080;11.896;2023-07-02T11:16:04;95925.00;;;27.90
33267;BMP180;19638;49.080;11.896;2023-07-02T11:20:07;95929.00;;;27.50
33267;BMP180;19638;49.080;11.896;2023-07-02T11:24:12;95928.00;;;27.30
33267;BMP180;19638;49.080;11.896;2023-07-02T11:28:23;95933.00;;;26.50
33267;BMP180;19638;49.080;11.896;2023-07-02T11:32:26;95935.00;;;28.10
33267;BMP180;19638;49.080;11.896;2023-07-02T11:36:29;95928.00;;;28.50
33267;BMP180;19638;49.080;11.896;2023-07-02T11:40:32;95927.00;;;28.30
33267;BMP180;19638;49.080;11.896;2023-07-02T11:44:38;95927.00;;;28.40
33267;BMP180;19638;49.080;11.896;2023-07-02T11:48:42;95934.00;;;27.70
33267;BMP180;19638;49.080;11.896;2023-07-02T11:52:51;95924.00;;;27.70
33267;BMP180;19638;49.080;11.896;2023-07-02T11:56:55;95930.00;;;28.60
33267;BMP180;19638;49.080;11.896;2023-07-02T12:00:59;95925.00;;;29.10
33267;BMP180;19638;49.080;11.896;2023-07-02T12:05:02;95937.00;;;29.90
33267;BMP180;19638;49.080;11.896;2023-07-02T12:09:09;95918.00;;;30.70
33267;BMP180;19638;49.080;11.896;2023-07-02T12:13:12;95923.00;;;31.50
33267;BMP180;19638;49.080;11.896;2023-07-02T12:17:17;95923.00;;;31.80
33267;BMP180;19638;49.080;11.896;2023-07-02T12:21:24;95929.00;;;32.20
33267;BMP180;19638;49.080;11.896;2023-07-02T12:25:27;95926.00;;;32.30
33267;BMP180;19638;49.080;11.896;2023-07-02T12:29:30;95923.00;;;32.50
33267;BMP180;19638;49.080;11.896;2023-07-02T12:33:35;95930.00;;;32.80
33267;BMP180;19638;49.080;11.896;2023-07-02T12:37:49;95926.00;;;32.50
33267;BMP180;19638;49.080;11.896;2023-07-02T12:41:55;95904.00;;;32.50
33267;BMP180;19638;49.080;11.896;2023-07-02T12:46:00;95916.00;;;32.10
33267;BMP180;19638;49.080;11.896;2023-07-02T12:50:06;95915.00;;;30.90
33267;BMP180;19638;49.080;11.896;2023-07-02T12:54:10;95885.00;;;31.00
33267;BMP180;19638;49.080;11.896;2023-07-02T12:58:19;95912.00;;;30.70
33267;BMP180;19638;49.080;11.896;2023-07-02T13:02:26;95915.00;;;30.60
33267;BMP180;19638;49.080;11.896;2023-07-02T13:06:31;95917.00;;;30.40
33267;BMP180;19638;49.080;11.896;2023-07-02T13:10:41;95924.00;;;30.00
33267;BMP180;19638;49.080;11.896;2023-07-02T13:14:46;95922.00;;;29.90
33267;BMP180;19638;49.080;11.896;2023-07-02T13:18:51;95921.00;;;30.10
33267;BMP180;19638;49.080;11.896;2023-07-02T13:23:01;95916.00;;;30.20
33267;BMP180;19638;49.080;11.896;2023-07-02T13:27:13;95918.00;;;30.00
33267;BMP180;19638;49.080;11.896;2023-07-02T13:31:18;95924.00;;;29.70
33267;BMP180;19638;49.080;11.896;2023-07-02T13:35:21;95921.00;;;29.40
33267;BMP180;19638;49.080;11.896;2023-07-02T13:39:41;95911.00;;;29.80
33267;BMP180;19638;49.080;11.896;2023-07-02T13:43:44;95912.00;;;30.40
33267;BMP180;19638;49.080;11.896;2023-07-02T13:47:51;95910.00;;;30.80
33267;BMP180;19638;49.080;11.896;2023-07-02T13:51:59;95909.00;;;30.90
33267;BMP180;19638;49.080;11.896;2023-07-02T13:56:04;95913.00;;;31.20
33267;BMP180;19638;49.080;11.896;2023-07-02T14:00:11;95931.00;;;31.30
33267;BMP180;19638;49.080;11.896;2023-07-02T14:04:17;95927.00;;;30.90
33267;BMP180;19638;49.080;11.896;2023-07-02T14:08:21;95923.00;;;31.10
33267;BMP180;19638;49.080;11.896;2023-07-02T14:12:26;95930.00;;;30.90
33267;BMP180;19638;49.080;11.896;2023-07-02T14:16:33;95929.00;;;29.90
33267;BMP180;19638;49.080;11.896;2023-07-02T14:20:38;95927.00;;;29.60
33267;BMP180;19638;49.080;11.896;2023-07-02T14:24:44;95919.00;;;30.30
33267;BMP180;19638;49.080;11.896;2023-07-02T14:28:47;95922.00;;;30.10
33267;BMP180;19638;49.080;11.896;2023-07-02T14:32:52;95916.00;;;30.00
33267;BMP180;19638;49.080;11.896;2023-07-02T14:36:58;95918.00;;;30.70
33267;BMP180;19638;49.080;11.896;2023-07-02T14:41:01;95914.00;;;30.90
33267;BMP180;19638;49.080;11.896;2023-07-02T14:45:08;95920.00;;;31.10
33267;BMP180;19638;49.080;11.896;2023-07-02T14:49:19;95917.00;;;31.20
33267;BMP180;19638;49.080;11.896;2023-07-02T14:53:23;95920.00;;;31.10
33267;BMP180;19638;49.080;11.896;2023-07-02T14:57:29;95917.00;;;31.10
33267;BMP180;19638;49.080;11.896;2023-07-02T15:01:35;95920.00;;;31.50
33267;BMP180;19638;49.080;11.896;2023-07-02T15:05:42;95918.00;;;31.70
33267;BMP180;19638;49.080;11.896;2023-07-02T15:09:45;95926.00;;;31.40
33267;BMP180;19638;49.080;11.896;2023-07-02T15:13:48;95907.00;;;31.30
33267;BMP180;19638;49.080;11.896;2023-07-02T15:17:51;95912.00;;;31.30
33267;BMP180;19638;49.080;11.896;2023-07-02T15:21:56;95908.00;;;30.90
33267;BMP180;19638;49.080;11.896;2023-07-02T15:26:04;95928.00;;;30.70
33267;BMP180;19638;49.080;11.896;2023-07-02T15:30:12;95916.00;;;30.70
33267;BMP180;19638;49.080;11.896;2023-07-02T15:34:15;95927.00;;;30.30
33267;BMP180;19638;49.080;11.896;2023-07-02T15:38:24;95925.00;;;29.80
33267;BMP180;19638;49.080;11.896;2023-07-02T15:42:29;95918.00;;;29.70
33267;BMP180;19638;49.080;11.896;2023-07-02T15:46:34;95922.00;;;29.20
33267;BMP180;19638;49.080;11.896;2023-07-02T15:50:39;95921.00;;;29.20
33267;BMP180;19638;49.080;11.896;2023-07-02T15:54:44;95922.00;;;29.50
33267;BMP180;19638;49.080;11.896;2023-07-02T15:58:47;95918.00;;;29.50
33267;BMP180;19638;49.080;11.896;2023-07-02T16:02:50;95918.00;;;30.10
33267;BMP180;19638;49.080;11.896;2023-07-02T16:06:56;95909.00;;;30.30
33267;BMP180;19638;49.080;11.896;2023-07-02T16:11:04;95930.00;;;30.00
33267;BMP180;19638;49.080;11.896;2023-07-02T16:15:13;95924.00;;;29.20
33267;BMP180;19638;49.080;11.896;2023-07-02T16:19:16;95918.00;;;28.80
33267;BMP180;19638;49.080;11.896;2023-07-02T16:23:24;95927.00;;;29.20
33267;BMP180;19638;49.080;11.896;2023-07-02T16:27:32;95916.00;;;29.00
33267;BMP180;19638;49.080;11.896;2023-07-02T16:31:37;95918.00;;;28.90
33267;BMP180;19638;49.080;11.896;2023-07-02T16:35:48;95909.00;;;29.30
33267;BMP180;19638;49.080;11.896;2023-07-02T16:39:56;95916.00;;;29.70
33267;BMP180;19638;49.080;11.896;2023-07-02T16:44:03;95912.00;;;29.80
33267;BMP180;19638;49.080;11.896;2023-07-02T16:48:08;95915.00;;;29.70
33267;BMP180;19638;49.080;11.896;2023-07-02T16:52:14;95911.00;;;29.80
33267;BMP180;19638;49.080;11.896;2023-07-02T16:56:21;95918.00;;;30.00
33267;BMP180;19638;49.080;11.896;2023-07-02T17:00:28;95918.00;;;29.90
33267;BMP180;19638;49.080;11.896;2023-07-02T17:04:32;95918.00;;;30.10
33267;BMP180;19638;49.080;11.896;2023-07-02T17:08:37;95917.00;;;30.20
33267;BMP180;19638;49.080;11.896;2023-07-02T17:12:44;95923.00;;;30.00
33267;BMP180;19638;49.080;11.896;2023-07-02T17:16:55;95920.00;;;30.00
33267;BMP180;19638;49.080;11.896;2023-07-02T17:20:58;95939.00;;;29.90
33267;BMP180;19638;49.080;11.896;2023-07-02T17:25:06;95932.00;;;29.90
33267;BMP180;19638;49.080;11.896;2023-07-02T17:29:09;95926.00;;;29.90
33267;BMP180;19638;49.080;11.896;2023-07-02T17:33:14;95931.00;;;30.10
33267;BMP180;19638;49.080;11.896;2023-07-02T17:37:20;95926.00;;;30.10
33267;BMP180;19638;49.080;11.896;2023-07-02T17:41:27;95931.00;;;30.40
33267;BMP180;19638;49.080;11.896;2023-07-02T17:45:36;95928.00;;;30.80
33267;BMP180;19638;49.080;11.896;2023-07-02T17:49:43;95932.00;;;30.70
33267;BMP180;19638;49.080;11.896;2023-07-02T17:53:47;95943.00;;;30.60
33267;BMP180;19638;49.080;11.896;2023-07-02T17:57:50;95944.00;;;30.30
33267;BMP180;19638;49.080;11.896;2023-07-02T18:01:55;95935.00;;;29.50
33267;BMP180;19638;49.080;11.896;2023-07-02T18:06:00;95934.00;;;28.50
33267;BMP180;19638;49.080;11.896;2023-07-02T18:10:04;95941.00;;;27.80
33267;BMP180;19638;49.080;11.896;2023-07-02T18:14:09;95941.00;;;27.10
33267;BMP180;19638;49.080;11.896;2023-07-02T18:18:14;95949.00;;;26.50
33267;BMP180;19638;49.080;11.896;2023-07-02T18:22:20;95939.00;;;26.00
33267;BMP180;19638;49.080;11.896;2023-07-02T18:26:23;95939.00;;;25.50
33267;BMP180;19638;49.080;11.896;2023-07-02T18:30:27;95933.00;;;25.20
33267;BMP180;19638;49.080;11.896;2023-07-02T18:34:30;95936.00;;;24.90
33267;BMP180;19638;49.080;11.896;2023-07-02T18:38:36;95940.00;;;24.60
33267;BMP180;19638;49.080;11.896;2023-07-02T18:42:39;95938.00;;;24.50
33267;BMP180;19638;49.080;11.896;2023-07-02T18:46:43;95938.00;;;24.30
33267;BMP180;19638;49.080;11.896;2023-07-02T18:50:50;95940.00;;;24.00
33267;BMP180;19638;49.080;11.896;2023-07-02T18:54:55;95943.00;;;23.80
33267;BMP180;19638;49.080;11.896;2023-07-02T18:59:00;95952.00;;;23.60
33267;BMP180;19638;49.080;11.896;2023-07-02T19:03:07;95947.00;;;23.30
33267;BMP180;19638;49.080;11.896;2023-07-02T19:07:14;95949.00;;;23.00
33267;BMP180;19638;49.080;11.896;2023-07-02T19:11:19;95953.00;;;22.70
33267;BMP180;19638;49.080;11.896;2023-07-02T19:15:25;95953.00;;;22.40
33267;BMP180;19638;49.080;11.896;2023-07-02T19:19:31;95958.00;;;21.90
33267;BMP180;19638;49.080;11.896;2023-07-02T19:23:35;95961.00;;;21.40
33267;BMP180;19638;49.080;11.896;2023-07-02T19:27:40;95962.00;;;20.80
33267;BMP180;19638;49.080;11.896;2023-07-02T19:31:43;95961.00;;;20.30
33267;BMP180;19638;49.080;11.896;2023-07-02T19:35:50;95963.00;;;19.80
33267;BMP180;19638;49.080;11.896;2023-07-02T19:39:56;95972.00;;;19.40
33267;BMP180;19638;49.080;11.896;2023-07-02T19:44:01;95965.00;;;19.00
33267;BMP180;19638;49.080;11.896;2023-07-02T19:48:06;95977.00;;;18.60
33267;BMP180;19638;49.080;11.896;2023-07-02T19:52:17;95976.00;;;18.20
33267;BMP180;19638;49.080;11.896;2023-07-02T19:56:24;95984.00;;;18.00
33267;BMP180;19638;49.080;11.896;2023-07-02T20:00:30;95986.00;;;17.70
33267;BMP180;19638;49.080;11.896;2023-07-02T20:04:35;95989.00;;;17.50
33267;BMP180;19638;49.080;11.896;2023-07-02T20:08:38;95996.00;;;17.30
33267;BMP180;19638;49.080;11.896;2023-07-02T20:12:43;95994.00;;;17.20
33267;BMP180;19638;49.080;11.896;2023-07-02T20:16:48;95991.00;;;17.10
33267;BMP180;19638;49.080;11.896;2023-07-02T20:20:52;96001.00;;;17.00
33267;BMP180;19638;49.080;11.896;2023-07-02T20:25:01;96006.00;;;16.80
33267;BMP180;19638;49.080;11.896;2023-07-02T20:29:24;96008.00;;;16.60
33267;BMP180;19638;49.080;11.896;2023-07-02T20:33:31;96009.00;;;16.50
33267;BMP180;19638;49.080;11.896;2023-07-02T20:37:37;96006.00;;;16.40
33267;BMP180;19638;49.080;11.896;2023-07-02T20:41:40;96018.00;;;16.20
33267;BMP180;19638;49.080;11.896;2023-07-02T20:45:48;96009.00;;;16.10
33267;BMP180;19638;49.080;11.896;2023-07-02T20:49:53;96014.00;;;16.00
33267;BMP180;19638;49.080;11.896;2023-07-02T20:54:01;96020.00;;;16.00
33267;BMP180;19638;49.080;11.896;2023-07-02T20:58:04;96017.00;;;16.00
33267;BMP180;19638;49.080;11.896;2023-07-02T21:02:07;96016.00;;;15.90
33267;BMP180;19638;49.080;11.896;2023-07-02T21:06:14;96024.00;;;15.70
33267;BMP180;19638;49.080;11.896;2023-07-02T21:10:19;96022.00;;;15.50
33267;BMP180;19638;49.080;11.896;2023-07-02T21:14:24;96028.00;;;15.40
33267;BMP180;19638;49.080;11.896;2023-07-02T21:18:28;96029.00;;;15.20
33267;BMP180;19638;49.080;11.896;2023-07-02T21:22:32;96028.00;;;15.10
33267;BMP180;19638;49.080;11.896;2023-07-02T21:26:38;96032.00;;;15.00
33267;BMP180;19638;49.080;11.896;2023-07-02T21:30:46;96037.00;;;14.90
33267;BMP180;19638;49.080;11.896;2023-07-02T21:34:51;96039.00;;;14.80
33267;BMP180;19638;49.080;11.896;2023-07-02T21:38:59;96047.00;;;14.70
33267;BMP180;19638;49.080;11.896;2023-07-02T21:43:04;96043.00;;;14.60
33267;BMP180;19638;49.080;11.896;2023-07-02T21:47:08;96044.00;;;14.60
33267;BMP180;19638;49.080;11.896;2023-07-02T21:51:11;96056.00;;;14.50
33267;BMP180;19638;49.080;11.896;2023-07-02T21:55:17;96052.00;;;14.50
33267;BMP180;19638;49.080;11.896;2023-07-02T21:59:21;96051.00;;;14.40
33267;BMP180;19638;49.080;11.896;2023-07-02T22:03:28;96055.00;;;14.30
33267;BMP180;19638;49.080;11.896;2023-07-02T22:07:34;96053.00;;;14.30
33267;BMP180;19638;49.080;11.896;2023-07-02T22:11:38;96045.00;;;14.30
33267;BMP180;19638;49.080;11.896;2023-07-02T22:15:44;96051.00;;;14.20
33267;BMP180;19638;49.080;11.896;2023-07-02T22:19:47;96043.00;;;14.10
33267;BMP180;19638;49.080;11.896;2023-07-02T22:23:53;96047.00;;;14.10
33267;BMP180;19638;49.080;11.896;2023-07-02T22:27:58;96046.00;;;14.20
33267;BMP180;19638;49.080;11.896;2023-07-02T22:32:01;96055.00;;;14.20
33267;BMP180;19638;49.080;11.896;2023-07-02T22:36:07;96051.00;;;14.20
33267;BMP180;19638;49.080;11.896;2023-07-02T22:40:12;96051.00;;;14.00
33267;BMP180;19638;49.080;11.896;2023-07-02T22:44:17;96052.00;;;13.90
33267;BMP180;19638;49.080;11.896;2023-07-02T22:48:22;96054.00;;;13.70
33267;BMP180;19638;49.080;11.896;2023-07-02T22:52:28;96043.00;;;13.70
33267;BMP180;19638;49.080;11.896;2023-07-02T22:56:31;96049.00;;;13.70
33267;BMP180;19638;49.080;11.896;2023-07-02T23:00:36;96045.00;;;13.50
33267;BMP180;19638;49.080;11.896;2023-07-02T23:04:45;96053.00;;;13.30
33267;BMP180;19638;49.080;11.896;2023-07-02T23:08:48;96041.00;;;13.20
33267;BMP180;19638;49.080;11.896;2023-07-02T23:12:54;96039.00;;;13.20
33267;BMP180;19638;49.080;11.896;2023-07-02T23:17:02;96043.00;;;13.20